createdAt,value
2018-12-16T00:00:51.300Z,5.50
2018-12-16T00:03:20.320Z,6.47
2018-12-16T00:05:50.584Z,5.42
2018-12-16T00:08:19.112Z,5.37
2018-12-16T00:10:49.009Z,5.40
2018-12-16T00:13:19.254Z,5.90
2018-12-16T00:15:47.780Z,5.33
2018-12-16T00:18:16.596Z,5.63
2018-12-16T00:20:46.641Z,5.87
2018-12-16T00:23:15.427Z,5.23
2018-12-16T00:25:44.027Z,5.30
2018-12-16T00:28:12.803Z,4.80
2018-12-16T00:30:42.532Z,5.80
2018-12-16T00:33:11.963Z,5.57
2018-12-16T00:35:41.039Z,5.77
2018-12-16T00:38:09.853Z,5.83
2018-12-16T00:40:39.275Z,4.90
2018-12-16T00:43:07.832Z,5.03
2018-12-16T00:45:36.677Z,5.43
2018-12-16T00:48:05.779Z,4.90
2018-12-16T00:50:34.621Z,5.70
2018-12-16T00:53:03.404Z,5.17
2018-12-16T00:55:32.888Z,5.03
2018-12-16T00:58:02.096Z,5.43
2018-12-16T01:00:31.475Z,5.80
2018-12-16T01:03:00.044Z,4.60
2018-12-16T01:05:29.078Z,5.03
2018-12-16T01:07:57.677Z,5.57
2018-12-16T01:10:26.786Z,5.40
2018-12-16T01:12:56.109Z,4.83
2018-12-16T01:15:25.302Z,5.33
2018-12-16T01:17:54.197Z,4.80
2018-12-16T01:20:23.870Z,5.42
2018-12-16T01:22:53.208Z,5.05
2018-12-16T01:25:23.800Z,6.20
2018-12-16T01:27:52.554Z,6.30
2018-12-16T01:30:21.407Z,5.27
2018-12-16T01:36:50.807Z,5.90
2018-12-16T01:39:20.374Z,6.37
2018-12-16T01:41:49.551Z,6.33
2018-12-16T01:44:18.527Z,6.47
2018-12-16T01:46:47.591Z,6.17
2018-12-16T01:49:16.356Z,5.80
2018-12-16T01:51:45.120Z,5.60
2018-12-16T01:54:13.928Z,6.37
2018-12-16T01:56:42.448Z,5.90
2018-12-16T01:59:11.852Z,6.57
2018-12-16T02:01:45.106Z,6.03
2018-12-16T02:04:13.856Z,6.55
2018-12-16T02:06:42.657Z,6.23
2018-12-16T02:09:12.269Z,6.20
2018-12-16T02:11:42.106Z,5.93
2018-12-16T02:14:11.679Z,5.67
2018-12-16T02:16:40.258Z,6.10
2018-12-16T02:19:09.400Z,6.30
2018-12-16T02:21:38.893Z,5.90
2018-12-16T02:24:08.381Z,6.30
2018-12-16T02:26:37.747Z,6.90
2018-12-16T02:29:06.521Z,6.37
2018-12-16T02:31:34.761Z,6.63
2018-12-16T02:34:03.572Z,6.87
2018-12-16T02:36:32.168Z,6.50
2018-12-16T02:39:01.497Z,6.17
2018-12-16T02:41:30.355Z,6.00
2018-12-16T02:44:02.997Z,5.90
2018-12-16T02:46:32.093Z,6.65
2018-12-16T02:49:01.524Z,6.33
2018-12-16T02:51:30.656Z,5.97
2018-12-16T02:54:00.803Z,6.00
2018-12-16T02:56:29.985Z,5.80
2018-12-16T02:58:58.530Z,6.10
2018-12-16T03:01:28.454Z,6.03
2018-12-16T03:03:57.252Z,6.07
2018-12-16T03:06:25.878Z,5.73
2018-12-16T03:08:54.999Z,5.70
2018-12-16T03:11:23.949Z,6.50
2018-12-16T03:13:52.996Z,5.97
2018-12-16T03:16:22.051Z,6.03
2018-12-16T03:18:51.128Z,6.60
2018-12-16T03:21:20.125Z,6.47
2018-12-16T03:23:49.533Z,6.00
2018-12-16T03:26:18.062Z,6.00
2018-12-16T03:28:47.358Z,6.23
2018-12-16T03:31:16.074Z,6.60
2018-12-16T03:33:45.128Z,6.93
2018-12-16T03:36:13.890Z,7.00
2018-12-16T03:38:43.132Z,6.53
2018-12-16T03:41:12.117Z,6.17
2018-12-16T03:43:41.724Z,6.03
2018-12-16T03:46:10.866Z,6.57
2018-12-16T03:48:39.604Z,6.90
2018-12-16T03:51:08.064Z,6.80
2018-12-16T03:53:37.229Z,6.37
2018-12-16T03:56:10.048Z,5.57
2018-12-16T03:58:43.099Z,6.10
2018-12-16T04:01:12.720Z,6.80
2018-12-16T04:03:41.498Z,6.67
2018-12-16T04:06:10.008Z,5.77
2018-12-16T04:08:39.555Z,4.78
2018-12-16T04:11:08.673Z,4.60
2018-12-16T04:13:37.544Z,4.27
2018-12-16T04:16:06.799Z,4.20
2018-12-16T04:18:36.413Z,3.90
2018-12-16T04:21:05.461Z,3.67
2018-12-16T04:23:34.628Z,4.10
2018-12-16T04:26:03.891Z,3.77
2018-12-16T04:28:32.739Z,3.30
2018-12-16T04:31:01.749Z,3.10
2018-12-16T04:33:30.948Z,3.00
2018-12-16T04:35:59.975Z,2.57
2018-12-16T04:38:29.021Z,2.23
2018-12-16T04:40:58.868Z,2.57
2018-12-16T04:43:27.756Z,2.33
2018-12-16T04:45:57.963Z,2.17
2018-12-16T04:48:27.041Z,2.30
2018-12-16T04:50:56.372Z,2.60
2018-12-16T04:53:25.383Z,2.20
2018-12-16T04:55:53.936Z,2.30
2018-12-16T04:58:22.972Z,1.90
2018-12-16T05:00:52.327Z,2.33
2018-12-16T05:03:21.128Z,2.00
2018-12-16T05:05:49.869Z,1.97
2018-12-16T05:08:18.751Z,2.03
2018-12-16T05:10:47.504Z,2.03
2018-12-16T05:13:16.877Z,1.80
2018-12-16T05:15:46.308Z,1.45
2018-12-16T05:18:14.767Z,1.70
2018-12-16T05:20:44.148Z,1.83
2018-12-16T05:23:13.520Z,1.80
2018-12-16T05:25:42.692Z,2.00
2018-12-16T05:28:11.482Z,1.80
2018-12-16T05:30:40.008Z,1.80
2018-12-16T05:33:08.838Z,1.67
2018-12-16T05:35:37.759Z,1.50
2018-12-16T05:38:06.807Z,1.40
2018-12-16T05:40:35.402Z,1.80
2018-12-16T05:43:04.472Z,1.23
2018-12-16T05:45:33.264Z,1.50
2018-12-16T05:48:02.707Z,1.50
2018-12-16T05:50:31.879Z,1.20
2018-12-16T05:53:01.015Z,1.50
2018-12-16T05:55:30.892Z,1.30
2018-12-16T05:57:59.704Z,1.30
2018-12-16T06:00:29.311Z,1.27
2018-12-16T06:02:58.304Z,1.47
2018-12-16T06:05:27.132Z,1.20
2018-12-16T06:07:56.215Z,1.30
2018-12-16T06:10:25.364Z,1.27
2018-12-16T06:12:53.927Z,1.60
2018-12-16T06:15:23.519Z,1.40
2018-12-16T06:17:52.041Z,1.40
2018-12-16T06:20:20.904Z,1.73
2018-12-16T06:22:50.335Z,1.50
2018-12-16T06:25:19.442Z,1.60
2018-12-16T06:27:48.623Z,1.53
2018-12-16T06:30:19.047Z,1.50
2018-12-16T06:32:51.459Z,1.60
2018-12-16T06:35:20.288Z,1.50
2018-12-16T06:37:49.043Z,1.57
2018-12-16T06:40:18.181Z,1.57
2018-12-16T06:42:47.272Z,1.40
2018-12-16T06:45:16.283Z,1.77
2018-12-16T06:47:45.006Z,1.80
2018-12-16T06:50:13.496Z,1.47
2018-12-16T06:52:42.980Z,2.20
2018-12-16T06:55:11.724Z,2.13
2018-12-16T06:57:41.447Z,2.00
2018-12-16T07:00:10.224Z,1.70
2018-12-16T07:02:39.091Z,2.00
2018-12-16T07:05:08.180Z,2.60
2018-12-16T07:07:37.696Z,2.00
2018-12-16T07:10:06.247Z,2.30
2018-12-16T07:12:35.970Z,2.20
2018-12-16T07:15:05.122Z,2.20
2018-12-16T07:17:33.928Z,2.42
2018-12-16T07:20:03.033Z,2.30
2018-12-16T07:22:33.992Z,2.10
2018-12-16T07:25:03.241Z,1.77
2018-12-16T07:27:32.045Z,1.87
2018-12-16T07:30:02.081Z,3.60
2018-12-16T07:32:30.842Z,2.17
2018-12-16T07:35:00.316Z,1.60
2018-12-16T07:37:28.823Z,1.77
2018-12-16T07:39:58.721Z,2.50
2018-12-16T07:42:28.663Z,2.60
2018-12-16T07:44:57.953Z,2.30
2018-12-16T07:47:26.736Z,3.00
2018-12-16T07:49:55.776Z,2.83
2018-12-16T07:52:24.386Z,2.33
2018-12-16T07:54:53.528Z,2.83
2018-12-16T07:57:22.367Z,2.20
2018-12-16T07:59:51.226Z,2.80
2018-12-16T08:02:19.813Z,3.20
2018-12-16T08:04:48.998Z,2.77
2018-12-16T08:07:18.112Z,2.30
2018-12-16T08:09:47.300Z,2.95
2018-12-16T08:12:16.651Z,2.87
2018-12-16T08:14:46.287Z,2.27
2018-12-16T08:17:15.392Z,2.58
2018-12-16T08:19:44.188Z,2.30
2018-12-16T08:22:12.700Z,2.53
2018-12-16T08:24:41.560Z,2.80
2018-12-16T08:27:10.387Z,1.83
2018-12-16T08:29:39.411Z,2.30
2018-12-16T08:32:08.496Z,1.97
2018-12-16T08:44:21.125Z,2.20
2018-12-16T08:46:49.871Z,1.57
2018-12-16T08:49:18.733Z,1.67
2018-12-16T08:51:47.684Z,1.75
2018-12-16T08:54:16.564Z,1.83
2018-12-16T08:56:45.313Z,2.10
2018-12-16T08:59:14.377Z,1.93
2018-12-16T09:01:43.840Z,1.77
2018-12-16T09:04:13.175Z,2.40
2018-12-16T09:06:42.555Z,2.30
2018-12-16T09:09:11.524Z,2.27
2018-12-16T09:11:41.065Z,2.27
2018-12-16T09:14:09.882Z,2.40
2018-12-16T09:16:38.785Z,2.43
2018-12-16T09:19:07.844Z,1.93
2018-12-16T09:25:01.796Z,2.03
2018-12-16T09:27:30.700Z,2.33
2018-12-16T09:30:00.069Z,2.00
2018-12-16T09:32:28.608Z,1.77
2018-12-16T09:34:57.847Z,2.50
2018-12-16T09:37:26.654Z,1.67
2018-12-16T09:39:55.231Z,1.90
2018-12-16T09:42:24.402Z,1.83
2018-12-16T09:44:53.327Z,1.97
2018-12-16T09:47:22.719Z,1.90
2018-12-16T09:49:51.749Z,1.63
2018-12-16T09:52:21.007Z,1.80
2018-12-16T09:54:51.604Z,2.17
2018-12-16T09:57:22.436Z,2.20
2018-12-16T09:59:51.512Z,2.00
2018-12-16T10:02:21.356Z,2.50
2018-12-16T10:04:50.644Z,2.60
2018-12-16T10:07:19.439Z,2.37
2018-12-16T10:09:49.308Z,2.35
2018-12-16T10:12:18.326Z,1.93
2018-12-16T10:14:47.211Z,2.20
2018-12-16T10:17:19.236Z,2.47
2018-12-16T10:19:48.560Z,2.50
2018-12-16T10:22:20.899Z,2.17
2018-12-16T10:24:51.428Z,2.00
2018-12-16T10:27:20.360Z,2.20
2018-12-16T10:29:49.355Z,2.23
2018-12-16T10:32:18.536Z,2.47
2018-12-16T10:34:46.783Z,2.37
2018-12-16T10:37:15.917Z,1.77
2018-12-16T10:39:44.687Z,1.97
2018-12-16T10:42:13.503Z,2.52
2018-12-16T10:44:45.768Z,2.60
2018-12-16T10:47:14.111Z,2.50
2018-12-16T10:49:44.657Z,2.30
2018-12-16T10:52:15.872Z,2.93
2018-12-16T10:54:44.863Z,2.17
2018-12-16T10:57:14.247Z,2.30
2018-12-16T10:59:42.721Z,2.60
2018-12-16T11:02:11.200Z,2.60
2018-12-16T11:04:40.447Z,2.27
2018-12-16T11:07:09.685Z,2.70
2018-12-16T11:09:40.141Z,2.43
2018-12-16T11:12:09.144Z,2.80
2018-12-16T11:14:37.663Z,2.73
2018-12-16T11:17:06.471Z,2.50
2018-12-16T11:19:36.962Z,2.50
2018-12-16T11:22:05.639Z,3.07
2018-12-16T11:24:34.155Z,3.30
2018-12-16T11:27:03.714Z,2.92
2018-12-16T11:29:33.499Z,2.93
2018-12-16T11:32:03.088Z,3.07
2018-12-16T11:34:31.884Z,2.73
2018-12-16T11:37:00.368Z,3.00
2018-12-16T11:39:30.315Z,2.93
2018-12-16T11:41:59.880Z,3.07
2018-12-16T11:44:29.037Z,3.73
2018-12-16T11:46:58.444Z,3.60
2018-12-16T11:49:28.076Z,3.17
2018-12-16T11:51:57.047Z,3.50
2018-12-16T11:54:29.212Z,3.42
2018-12-16T11:56:58.859Z,3.67
2018-12-16T11:59:27.689Z,4.07
2018-12-16T12:01:56.556Z,3.57
2018-12-16T12:04:25.567Z,3.50
2018-12-16T12:06:54.479Z,3.37
2018-12-16T12:09:24.464Z,3.10
2018-12-16T12:11:53.927Z,3.50
2018-12-16T12:14:23.192Z,3.73
2018-12-16T12:16:52.440Z,3.83
2018-12-16T12:19:22.070Z,3.67
2018-12-16T12:21:51.156Z,3.50
2018-12-16T12:24:21.035Z,3.73
2018-12-16T12:26:50.489Z,3.17
2018-12-16T12:29:24.664Z,3.33
2018-12-16T12:31:54.977Z,3.47
2018-12-16T12:34:24.380Z,3.60
2018-12-16T12:36:53.723Z,3.60
2018-12-16T12:39:23.112Z,4.17
2018-12-16T12:41:52.163Z,3.57
2018-12-16T12:44:21.216Z,3.93
2018-12-16T12:46:50.349Z,3.50
2018-12-16T12:49:19.693Z,3.17
2018-12-16T12:51:48.660Z,3.83
2018-12-16T12:54:18.434Z,4.17
2018-12-16T12:56:48.304Z,4.57
2018-12-16T12:59:18.403Z,2.97
2018-12-16T13:01:47.808Z,3.70
2018-12-16T13:04:17.415Z,3.27
2018-12-16T13:06:46.996Z,3.60
2018-12-16T13:09:15.975Z,3.30
2018-12-16T13:11:45.579Z,3.60
2018-12-16T13:14:14.699Z,3.10
2018-12-16T13:16:44.135Z,3.30
2018-12-16T13:19:13.532Z,3.23
2018-12-16T13:21:43.151Z,3.43
2018-12-16T13:24:12.224Z,3.33
2018-12-16T13:26:41.385Z,3.60
2018-12-16T13:29:10.891Z,3.30
2018-12-16T13:31:39.464Z,3.00
2018-12-16T13:34:08.603Z,3.23
2018-12-16T13:36:37.374Z,3.10
2018-12-16T13:39:07.621Z,3.00
2018-12-16T13:41:36.631Z,3.43
2018-12-16T13:44:06.207Z,3.27
2018-12-16T13:46:35.607Z,3.87
2018-12-16T13:49:04.412Z,3.57
2018-12-16T13:51:33.028Z,3.43
2018-12-16T13:54:02.399Z,3.03
2018-12-16T13:56:31.145Z,3.10
2018-12-16T13:59:01.387Z,3.23
2018-12-16T14:01:30.457Z,3.00
2018-12-16T14:03:59.264Z,2.83
2018-12-16T14:06:28.016Z,2.25
2018-12-16T14:08:57.192Z,2.30
2018-12-16T14:11:27.155Z,2.77
2018-12-16T14:13:56.475Z,2.60
2018-12-16T14:16:26.000Z,2.63
2018-12-16T14:18:54.920Z,2.50
2018-12-16T14:21:24.924Z,2.67
2018-12-16T14:23:53.709Z,2.93
2018-12-16T14:26:22.744Z,2.60
2018-12-16T14:28:52.188Z,2.20
2018-12-16T14:31:21.181Z,2.67
2018-12-16T14:33:49.942Z,2.50
2018-12-16T14:36:19.506Z,2.40
2018-12-16T14:38:48.973Z,2.93
2018-12-16T14:41:18.372Z,2.60
2018-12-16T14:43:47.567Z,2.67
2018-12-16T14:46:16.723Z,2.40
2018-12-16T14:48:47.627Z,2.47
2018-12-16T14:51:16.739Z,2.17
2018-12-16T14:53:45.370Z,1.90
2018-12-16T14:56:14.664Z,1.97
2018-12-16T14:58:43.559Z,1.70
2018-12-16T15:01:12.852Z,1.70
2018-12-16T15:03:41.649Z,2.03
2018-12-16T15:06:10.703Z,1.70
2018-12-16T15:08:39.504Z,1.63
2018-12-16T15:11:08.592Z,1.67
2018-12-16T15:13:37.750Z,1.80
2018-12-16T15:16:06.743Z,1.83
2018-12-16T15:18:36.191Z,1.80
2018-12-16T15:21:05.327Z,1.80
2018-12-16T15:23:34.030Z,1.80
2018-12-16T15:26:03.423Z,1.90
2018-12-16T15:28:32.455Z,1.90
2018-12-16T15:31:01.295Z,1.77
2018-12-16T15:33:31.315Z,1.70
2018-12-16T15:36:01.428Z,1.73
2018-12-16T15:38:30.436Z,2.00
2018-12-16T15:41:00.018Z,1.80
2018-12-16T15:43:30.108Z,1.80
2018-12-16T15:45:59.465Z,1.60
2018-12-16T15:48:29.232Z,2.47
2018-12-16T15:50:58.748Z,1.60
2018-12-16T15:53:27.646Z,1.70
2018-12-16T15:55:57.096Z,1.87
2018-12-16T15:58:26.459Z,1.80
2018-12-16T16:00:55.599Z,1.80
2018-12-16T16:03:24.987Z,1.63
2018-12-16T16:05:54.113Z,1.83
2018-12-16T16:08:23.169Z,1.73
2018-12-16T16:10:52.910Z,1.80
2018-12-16T16:13:22.160Z,1.87
2018-12-16T16:15:51.184Z,2.40
2018-12-16T16:18:20.055Z,2.27
2018-12-16T16:20:49.988Z,1.50
2018-12-16T16:23:18.732Z,1.70
2018-12-16T16:25:47.616Z,1.53
2018-12-16T16:28:19.360Z,1.90
2018-12-16T16:30:49.308Z,1.80
2018-12-16T16:33:18.848Z,2.00
2018-12-16T16:35:48.473Z,2.33
2018-12-16T16:38:17.980Z,1.40
2018-12-16T16:40:46.486Z,1.27
2018-12-16T16:43:15.849Z,1.40
2018-12-16T16:45:45.787Z,1.40
2018-12-16T16:48:15.908Z,1.40
2018-12-16T16:50:49.932Z,1.10
2018-12-16T16:53:19.537Z,1.40
2018-12-16T16:55:48.063Z,1.30
2018-12-16T16:58:17.743Z,1.40
2018-12-16T17:00:46.795Z,1.60
2018-12-16T17:03:15.640Z,1.43
2018-12-16T17:05:45.002Z,1.60
2018-12-16T17:08:14.389Z,1.80
2018-12-16T17:10:43.932Z,1.97
2018-12-16T17:13:12.925Z,1.97
2018-12-16T17:15:48.277Z,1.90
2018-12-16T17:18:17.695Z,2.08
2018-12-16T17:20:46.776Z,2.13
2018-12-16T17:23:15.827Z,1.80
2018-12-16T17:25:48.194Z,2.20
2018-12-16T17:28:16.974Z,2.43
2018-12-16T17:30:47.192Z,2.03
2018-12-16T17:33:16.488Z,1.87
2018-12-16T17:35:45.004Z,2.03
2018-12-16T17:38:13.821Z,2.40
2018-12-16T17:40:44.049Z,2.20
2018-12-16T17:43:14.231Z,2.45
2018-12-16T17:45:43.449Z,2.10
2018-12-16T17:48:12.284Z,2.13
2018-12-16T17:50:42.668Z,2.60
2018-12-16T17:53:12.763Z,2.50
2018-12-16T17:55:41.619Z,2.40
2018-12-16T17:58:10.639Z,2.40
2018-12-16T18:00:39.508Z,2.60
2018-12-16T18:03:09.072Z,2.80
2018-12-16T18:05:38.533Z,2.37
2018-12-16T18:08:07.363Z,2.80
2018-12-16T18:10:37.396Z,2.37
2018-12-16T18:13:06.032Z,2.57
2018-12-16T18:15:35.599Z,2.13
2018-12-16T18:18:05.362Z,2.40
2018-12-16T18:20:34.088Z,2.33
2018-12-16T18:23:03.120Z,2.87
2018-12-16T18:25:32.264Z,2.67
2018-12-16T18:28:02.449Z,2.00
2018-12-16T18:30:31.251Z,2.63
2018-12-16T18:33:00.492Z,2.70
2018-12-16T18:35:29.251Z,3.23
2018-12-16T18:37:58.587Z,2.53
2018-12-16T18:40:28.717Z,2.65
2018-12-16T18:42:57.956Z,2.80
2018-12-16T18:45:27.173Z,2.57
2018-12-16T18:47:56.464Z,2.40
2018-12-16T18:50:25.571Z,2.37
2018-12-16T18:52:54.929Z,2.20
2018-12-16T18:55:24.756Z,2.77
2018-12-16T18:57:54.100Z,2.60
2018-12-16T19:00:24.572Z,2.47
2018-12-16T19:02:54.050Z,3.20
2018-12-16T19:05:23.308Z,2.93
2018-12-16T19:07:52.321Z,2.80
2018-12-16T19:10:23.583Z,3.40
2018-12-16T19:12:53.096Z,2.67
2018-12-16T19:15:22.145Z,2.13
2018-12-16T19:17:51.988Z,3.27
2018-12-16T19:20:21.344Z,2.30
2018-12-16T19:22:49.802Z,2.47
2018-12-16T19:25:19.279Z,2.80
2018-12-16T19:27:48.043Z,2.22
2018-12-16T19:30:17.709Z,1.90
2018-12-16T19:32:46.779Z,2.07
2018-12-16T19:35:15.548Z,1.80
2018-12-16T19:37:44.239Z,1.50
2018-12-16T19:40:13.927Z,1.97
2018-12-16T19:42:44.368Z,1.73
2018-12-16T19:45:13.398Z,1.80
2018-12-16T19:47:41.894Z,1.60
2018-12-16T19:50:13.350Z,1.70
2018-12-16T19:52:42.937Z,1.70
2018-12-16T19:55:12.205Z,2.20
2018-12-16T19:57:42.328Z,2.30
2018-12-16T20:00:12.748Z,1.80
2018-12-16T20:02:42.140Z,1.90
2018-12-16T20:05:16.391Z,1.53
2018-12-16T20:07:47.263Z,1.50
2018-12-16T20:10:16.722Z,1.30
2018-12-16T20:12:45.464Z,1.50
2018-12-16T20:15:14.299Z,1.60
2018-12-16T20:17:44.530Z,1.60
2018-12-16T20:20:14.416Z,1.77
2018-12-16T20:22:43.551Z,2.10
2018-12-16T20:25:12.018Z,1.77
2018-12-16T20:27:41.151Z,1.73
2018-12-16T20:30:10.375Z,1.40
2018-12-16T20:32:40.554Z,1.60
2018-12-16T20:35:09.679Z,1.70
2018-12-16T20:37:39.033Z,1.47
2018-12-16T20:40:09.773Z,1.17
2018-12-16T20:42:38.955Z,1.10
2018-12-16T20:45:09.148Z,1.20
2018-12-16T20:47:38.576Z,1.40
2018-12-16T20:50:08.524Z,1.60
2018-12-16T20:52:38.180Z,1.63
2018-12-16T20:55:06.923Z,2.40
2018-12-16T20:57:39.725Z,2.30
2018-12-16T21:00:09.676Z,3.27
2018-12-16T21:02:39.029Z,3.67
2018-12-16T21:05:08.544Z,3.20
2018-12-16T21:07:38.508Z,3.40
2018-12-16T21:10:07.807Z,2.53
2018-12-16T21:12:41.769Z,1.67
2018-12-16T21:15:16.587Z,1.10
2018-12-16T21:17:50.638Z,1.40
2018-12-16T21:20:20.536Z,1.50
2018-12-16T21:22:49.543Z,1.77
2018-12-16T21:25:18.948Z,1.90
2018-12-16T21:27:47.776Z,1.80
2018-12-16T21:30:16.859Z,2.20
2018-12-16T21:32:47.276Z,2.67
2018-12-16T21:35:16.264Z,2.90
2018-12-16T21:37:46.183Z,2.55
2018-12-16T21:40:14.973Z,2.80
2018-12-16T21:42:43.499Z,2.40
2018-12-16T21:45:12.563Z,1.77
2018-12-16T21:47:41.727Z,1.60
2018-12-16T21:50:10.654Z,1.40
2018-12-16T21:52:39.684Z,1.40
2018-12-16T21:55:09.114Z,1.30
2018-12-16T21:57:37.836Z,1.20
2018-12-16T22:00:07.417Z,1.20
2018-12-16T22:02:37.341Z,1.70
2018-12-16T22:05:08.267Z,1.40
2018-12-16T22:07:37.644Z,1.37
2018-12-16T22:10:07.295Z,1.47
2018-12-16T22:12:36.566Z,1.33
2018-12-16T22:15:06.742Z,1.27
2018-12-16T22:17:35.826Z,1.30
2018-12-16T22:20:04.684Z,1.10
2018-12-16T22:22:33.692Z,1.55
2018-12-16T22:25:02.588Z,1.70
2018-12-16T22:27:31.684Z,1.23
2018-12-16T22:30:00.756Z,1.53
2018-12-16T22:32:30.911Z,2.43
2018-12-16T22:35:03.476Z,2.53
2018-12-16T22:37:33.323Z,1.80
2018-12-16T22:40:05.060Z,1.50
2018-12-16T22:42:34.042Z,1.40
2018-12-16T22:45:03.571Z,1.30
2018-12-16T22:47:33.090Z,1.10
2018-12-16T22:50:01.563Z,1.17
2018-12-16T22:52:30.958Z,1.30
2018-12-16T22:55:00.827Z,1.10
2018-12-16T22:57:30.119Z,1.43
2018-12-16T22:59:59.177Z,1.53
2018-12-16T23:02:29.567Z,1.20
2018-12-16T23:04:58.312Z,1.23
2018-12-16T23:07:27.852Z,1.20
2018-12-16T23:09:57.239Z,1.10
2018-12-16T23:12:26.663Z,1.00
2018-12-16T23:14:56.354Z,1.00
2018-12-16T23:17:25.212Z,1.07
2018-12-16T23:19:59.292Z,0.90
2018-12-16T23:22:28.576Z,1.20
2018-12-16T23:24:57.947Z,1.37
2018-12-16T23:27:27.053Z,1.33
2018-12-16T23:29:56.143Z,1.03
2018-12-16T23:32:26.488Z,1.00
2018-12-16T23:34:56.726Z,0.93
2018-12-16T23:37:25.925Z,1.10
2018-12-16T23:39:55.066Z,1.30
2018-12-16T23:42:25.132Z,1.20
2018-12-16T23:44:54.549Z,1.40
2018-12-16T23:47:24.358Z,1.20
2018-12-16T23:49:55.563Z,1.13
2018-12-16T23:52:24.997Z,1.13
2018-12-16T23:54:56.715Z,1.20
2018-12-16T23:57:25.195Z,1.30
2018-12-16T23:59:54.248Z,1.07
